createdAt,value
2023-04-14T00:02:09.299Z,8.01
2023-04-14T00:06:07.258Z,7.97
2023-04-14T00:10:05.364Z,7.95
2023-04-14T00:14:04.229Z,7.92
2023-04-14T00:18:02.419Z,7.87
2023-04-14T00:22:00.271Z,7.86
2023-04-14T00:25:58.269Z,7.85
2023-04-14T00:29:56.186Z,7.86
2023-04-14T00:33:54.163Z,7.86
2023-04-14T00:37:52.310Z,7.86
2023-04-14T00:41:50.203Z,7.86
2023-04-14T00:45:59.311Z,7.84
2023-04-14T00:49:57.195Z,7.81
2023-04-14T00:53:55.289Z,7.76
2023-04-14T00:57:54.149Z,7.72
2023-04-14T01:01:52.338Z,7.67
2023-04-14T01:05:50.139Z,7.62
2023-04-14T01:09:48.221Z,7.54
2023-04-14T01:13:56.145Z,7.46
2023-04-14T01:18:14.184Z,7.31
2023-04-14T01:22:17.177Z,7.24
2023-04-14T01:26:43.213Z,7.23
2023-04-14T01:30:49.123Z,7.22
2023-04-14T01:35:05.195Z,7.22
2023-04-14T01:39:05.108Z,7.21
2023-04-14T01:43:07.146Z,7.19
2023-04-14T01:47:08.138Z,7.17
2023-04-14T01:51:06.176Z,7.13
2023-04-14T01:55:06.141Z,7.10
2023-04-14T01:59:08.118Z,7.07
2023-04-14T02:03:08.251Z,7.04
2023-04-14T02:07:06.237Z,7.01
2023-04-14T02:11:07.090Z,6.99
2023-04-14T02:15:08.081Z,6.97
2023-04-14T02:19:07.215Z,6.95
2023-04-14T02:23:05.058Z,6.92
2023-04-14T02:27:30.049Z,6.88
2023-04-14T02:31:30.138Z,6.85
2023-04-14T02:35:37.045Z,6.81
2023-04-14T02:39:37.044Z,6.80
2023-04-14T02:43:47.009Z,6.79
2023-04-14T02:47:49.100Z,6.77
2023-04-14T02:51:51.012Z,6.74
2023-04-14T02:55:50.067Z,6.71
2023-04-14T02:59:51.253Z,6.68
2023-04-14T03:03:51.093Z,6.66
2023-04-14T03:07:51.029Z,6.64
2023-04-14T03:11:51.088Z,6.61
2023-04-14T03:15:50.040Z,6.55
2023-04-14T03:19:48.994Z,6.47
2023-04-14T03:23:49.964Z,6.40
2023-04-14T03:27:49.046Z,6.34
2023-04-14T03:31:48.007Z,6.27
2023-04-14T03:35:46.989Z,6.22
2023-04-14T03:39:46.978Z,6.18
2023-04-14T03:43:47.001Z,6.14
2023-04-14T03:47:45.153Z,6.14
2023-04-14T03:51:45.957Z,6.15
2023-04-14T03:55:46.895Z,6.17
2023-04-14T03:59:45.988Z,6.18
2023-04-14T04:03:48.079Z,6.30
2023-04-14T04:07:46.938Z,6.50
2023-04-14T04:11:45.962Z,6.75
2023-04-14T04:15:46.014Z,7.02
2023-04-14T04:19:46.016Z,7.40
2023-04-14T04:23:46.935Z,7.76
2023-04-14T04:27:45.865Z,8.20
2023-04-14T04:31:43.933Z,8.58
2023-04-14T04:35:42.916Z,8.89
2023-04-14T04:39:40.917Z,9.10
2023-04-14T04:43:39.860Z,9.20
2023-04-14T04:47:37.949Z,9.20
2023-04-14T04:51:36.874Z,9.19
2023-04-14T04:55:34.987Z,9.17
2023-04-14T04:59:32.868Z,9.21
2023-04-14T05:03:30.966Z,9.32
2023-04-14T05:07:28.830Z,9.42
2023-04-14T05:11:26.910Z,9.48
2023-04-14T05:15:24.828Z,9.41
2023-04-14T05:19:22.876Z,9.29
2023-04-14T05:23:20.843Z,9.27
2023-04-14T05:27:18.862Z,9.24
2023-04-14T05:31:16.954Z,9.35
2023-04-14T05:35:14.803Z,9.44
2023-04-14T05:39:19.848Z,9.46
2023-04-14T05:43:17.909Z,9.48
2023-04-14T05:47:15.831Z,9.54
2023-04-14T05:51:13.877Z,9.57
2023-04-14T05:55:11.806Z,9.62
2023-04-14T05:59:09.823Z,9.70
2023-04-14T06:02:47.624Z,9.80
2023-04-14T06:06:11.534Z,9.90
2023-04-14T06:09:35.486Z,10.04
2023-04-14T06:12:59.539Z,10.18
2023-04-14T06:16:23.499Z,10.32
2023-04-14T06:19:49.206Z,10.52
2023-04-14T06:23:13.260Z,10.73
2023-04-14T06:26:38.183Z,10.93
2023-04-14T06:30:02.346Z,11.07
2023-04-14T06:33:26.263Z,11.24
2023-04-14T06:36:50.107Z,11.42
2023-04-14T06:40:14.437Z,11.53
2023-04-14T06:43:38.281Z,11.66
2023-04-14T06:47:02.203Z,11.81
2023-04-14T06:50:26.082Z,11.95
2023-04-14T06:53:50.014Z,12.18
2023-04-14T06:57:13.893Z,12.36
2023-04-14T07:00:38.258Z,12.49
2023-04-14T07:04:07.745Z,12.65
2023-04-14T07:07:36.651Z,12.79
2023-04-14T07:11:02.180Z,12.90
2023-04-14T07:14:26.208Z,12.99
2023-04-14T07:17:50.321Z,13.04
2023-04-14T07:21:14.305Z,13.03
2023-04-14T07:24:38.167Z,13.02
2023-04-14T07:28:03.684Z,13.02
2023-04-14T07:31:28.065Z,13.07
2023-04-14T07:34:52.562Z,13.08
2023-04-14T07:38:16.665Z,13.16
2023-04-14T07:41:41.425Z,13.25
2023-04-14T07:45:05.498Z,13.30
2023-04-14T07:48:29.313Z,13.37
2023-04-14T07:51:53.170Z,13.41
2023-04-14T07:55:17.459Z,13.56
2023-04-14T07:58:41.307Z,13.69
2023-04-14T08:02:05.728Z,13.83
2023-04-14T08:05:29.727Z,13.84
2023-04-14T08:08:53.908Z,13.90
2023-04-14T08:12:19.824Z,13.88
2023-04-14T08:15:43.747Z,13.99
2023-04-14T08:19:07.822Z,14.02
2023-04-14T08:22:31.926Z,14.01
2023-04-14T08:25:55.795Z,14.03
2023-04-14T08:29:19.638Z,14.01
2023-04-14T08:32:43.968Z,13.99
2023-04-14T08:36:08.637Z,14.04
2023-04-14T08:39:32.569Z,13.98
2023-04-14T08:42:57.701Z,14.11
2023-04-14T08:46:26.451Z,14.38
2023-04-14T08:50:18.867Z,14.63
2023-04-14T08:53:46.252Z,14.81
2023-04-14T08:57:12.607Z,14.91
2023-04-14T09:00:36.397Z,15.00
2023-04-14T09:04:04.275Z,15.02
2023-04-14T09:07:30.122Z,14.79
2023-04-14T09:10:55.375Z,14.77
2023-04-14T09:14:20.538Z,14.92
2023-04-14T09:17:47.242Z,14.94
2023-04-14T09:21:49.700Z,15.11
2023-04-14T09:24:58.962Z,15.21
2023-04-14T09:28:23.342Z,15.07
2023-04-14T09:31:48.632Z,14.92
2023-04-14T09:35:14.329Z,14.85
2023-04-14T09:38:39.848Z,14.84
2023-04-14T09:42:05.177Z,14.93
2023-04-14T09:45:45.714Z,15.23
2023-04-14T09:49:09.735Z,15.54
2023-04-14T09:52:42.040Z,15.42
2023-04-14T09:56:09.676Z,15.30
2023-04-14T09:59:36.851Z,15.32
2023-04-14T10:03:01.647Z,15.43
2023-04-14T10:06:26.889Z,15.44
2023-04-14T10:09:50.718Z,15.52
2023-04-14T10:13:16.169Z,15.58
2023-04-14T10:16:40.211Z,15.76
2023-04-14T10:20:04.454Z,15.83
2023-04-14T10:23:28.962Z,15.85
2023-04-14T10:26:54.720Z,16.01
2023-04-14T10:30:18.640Z,16.10
2023-04-14T10:33:43.647Z,16.07
2023-04-14T10:37:15.152Z,16.13
2023-04-14T10:41:09.176Z,16.00
2023-04-14T10:44:35.234Z,15.86
2023-04-14T10:47:59.502Z,15.92
2023-04-14T10:51:35.949Z,16.19
2023-04-14T10:55:08.213Z,16.58
2023-04-14T10:58:36.590Z,16.97
2023-04-14T11:02:00.532Z,16.88
2023-04-14T11:05:25.125Z,16.82
2023-04-14T11:08:51.371Z,16.79
2023-04-14T11:12:26.207Z,16.75
2023-04-14T11:16:07.256Z,16.71
2023-04-14T11:19:32.594Z,16.77
2023-04-14T11:22:58.994Z,16.94
2023-04-14T11:26:25.728Z,16.81
2023-04-14T11:29:50.031Z,16.74
2023-04-14T11:33:16.232Z,16.74
2023-04-14T11:36:40.410Z,16.61
2023-04-14T11:40:07.334Z,16.63
2023-04-14T11:43:31.781Z,16.72
2023-04-14T11:46:55.908Z,17.08
2023-04-14T11:50:19.993Z,17.42
2023-04-14T11:53:43.873Z,17.28
2023-04-14T11:57:12.517Z,17.38
2023-04-14T12:00:36.572Z,17.40
2023-04-14T12:04:00.648Z,17.33
2023-04-14T12:07:24.717Z,17.17
2023-04-14T12:10:48.562Z,17.28
2023-04-14T12:14:13.233Z,17.22
2023-04-14T12:17:38.722Z,16.97
2023-04-14T12:21:03.370Z,17.01
2023-04-14T12:24:35.404Z,17.15
2023-04-14T12:27:59.747Z,17.45
2023-04-14T12:31:29.839Z,17.58
2023-04-14T12:34:58.741Z,17.65
2023-04-14T12:38:28.170Z,17.64
2023-04-14T12:41:52.094Z,17.35
2023-04-14T12:45:17.465Z,16.94
2023-04-14T12:48:43.936Z,16.65
2023-04-14T12:52:08.850Z,16.78
2023-04-14T12:55:33.276Z,17.23
2023-04-14T12:59:01.909Z,17.54
2023-04-14T13:02:30.950Z,17.55
2023-04-14T13:05:57.475Z,17.21
2023-04-14T13:09:21.829Z,16.98
2023-04-14T13:12:45.940Z,16.86
2023-04-14T13:16:13.953Z,16.75
2023-04-14T13:19:39.537Z,16.52
2023-04-14T13:23:03.431Z,16.41
2023-04-14T13:26:34.766Z,16.40
2023-04-14T13:30:02.810Z,16.52
2023-04-14T13:33:47.317Z,16.71
2023-04-14T13:37:45.324Z,16.76
2023-04-14T13:41:43.264Z,16.77
2023-04-14T13:45:41.412Z,16.72
2023-04-14T13:49:39.313Z,16.53
2023-04-14T13:53:37.462Z,16.62
2023-04-14T13:57:35.394Z,16.68
2023-04-14T14:03:20.669Z,16.77
2023-04-14T14:07:18.464Z,16.68
2023-04-14T14:11:17.467Z,16.75
2023-04-14T14:15:15.378Z,17.23
2023-04-14T14:19:17.454Z,17.29
2023-04-14T14:23:15.364Z,17.23
2023-04-14T14:27:13.474Z,16.97
2023-04-14T14:31:11.543Z,16.91
2023-04-14T14:35:09.352Z,16.58
2023-04-14T14:39:07.404Z,16.23
2023-04-14T14:43:05.402Z,15.99
2023-04-14T14:47:03.534Z,15.86
2023-04-14T14:51:02.363Z,15.83
2023-04-14T14:55:00.298Z,15.75
2023-04-14T14:58:59.307Z,15.67
2023-04-14T15:02:57.693Z,15.66
2023-04-14T15:06:56.390Z,15.47
2023-04-14T15:10:54.280Z,15.35
2023-04-14T15:14:52.373Z,15.23
2023-04-14T15:18:50.371Z,15.23
2023-04-14T15:22:48.308Z,15.14
2023-04-14T15:26:46.345Z,15.03
2023-04-14T15:30:44.331Z,15.01
2023-04-14T15:34:43.286Z,14.84
2023-04-14T15:38:41.322Z,14.72
2023-04-14T15:42:39.303Z,14.50
2023-04-14T15:46:37.390Z,14.36
2023-04-14T15:50:35.344Z,14.25
2023-04-14T15:54:43.362Z,14.03
2023-04-14T15:58:41.355Z,13.94
2023-04-14T16:02:39.754Z,13.85
2023-04-14T16:06:37.295Z,13.67
2023-04-14T16:10:35.301Z,13.57
2023-04-14T16:14:33.240Z,13.41
2023-04-14T16:18:31.309Z,13.27
2023-04-14T16:22:29.272Z,13.18
2023-04-14T16:26:27.232Z,13.10
2023-04-14T16:30:25.202Z,12.96
2023-04-14T16:34:25.239Z,12.89
2023-04-14T16:38:23.289Z,12.79
2023-04-14T16:42:25.258Z,12.67
2023-04-14T16:46:24.365Z,12.53
2023-04-14T16:50:24.263Z,12.40
2023-04-14T16:54:22.187Z,12.29
2023-04-14T16:58:20.212Z,12.18
2023-04-14T17:02:18.290Z,12.12
2023-04-14T17:06:16.166Z,12.04
2023-04-14T17:10:14.266Z,11.98
2023-04-14T17:14:12.186Z,11.91
2023-04-14T17:18:10.341Z,11.82
2023-04-14T17:22:08.131Z,11.75
2023-04-14T17:26:06.167Z,11.65
2023-04-14T17:30:04.206Z,11.55
2023-04-14T17:34:02.402Z,11.49
2023-04-14T17:38:00.115Z,11.46
2023-04-14T17:41:58.329Z,11.44
2023-04-14T17:45:57.131Z,11.42
2023-04-14T17:49:55.107Z,11.39
2023-04-14T17:53:54.280Z,11.34
2023-04-14T17:57:57.073Z,11.32
2023-04-14T18:01:55.145Z,11.25
2023-04-14T18:05:55.177Z,11.19
2023-04-14T18:09:53.097Z,11.14
2023-04-14T18:13:51.138Z,11.09
2023-04-14T18:17:49.112Z,11.04
2023-04-14T18:21:48.068Z,10.98
2023-04-14T18:29:50.114Z,10.92
2023-04-14T18:33:49.134Z,10.90
2023-04-14T18:37:47.078Z,10.87
2023-04-14T18:41:45.081Z,10.85
2023-04-14T18:45:43.053Z,10.84
2023-04-14T18:49:41.138Z,10.83
2023-04-14T18:53:40.275Z,10.81
2023-04-14T18:57:39.137Z,10.81
2023-04-14T19:01:37.056Z,10.81
2023-04-14T19:05:36.043Z,10.77
2023-04-14T19:09:34.026Z,10.77
2023-04-14T19:13:35.089Z,10.72
2023-04-14T19:17:33.021Z,10.71
2023-04-14T19:21:32.043Z,10.68
2023-04-14T19:25:31.065Z,10.64
2023-04-14T19:29:29.323Z,10.58
2023-04-14T19:33:27.048Z,10.54
2023-04-14T19:37:26.103Z,10.53
2023-04-14T19:41:23.969Z,10.50
2023-04-14T19:45:22.094Z,10.45
2023-04-14T19:49:20.030Z,10.43
2023-04-14T19:53:17.987Z,10.42
2023-04-14T19:57:17.946Z,10.40
2023-04-14T20:01:16.084Z,10.37
2023-04-14T20:05:14.010Z,10.36
2023-04-14T20:09:12.029Z,10.33
2023-04-14T20:13:09.970Z,10.27
2023-04-14T20:17:08.040Z,10.23
2023-04-14T20:21:05.930Z,10.17
2023-04-14T20:25:04.016Z,10.11
2023-04-14T20:29:03.251Z,10.06
2023-04-14T20:33:00.975Z,10.04
2023-04-14T20:37:01.905Z,10.01
2023-04-14T20:40:59.952Z,9.99
2023-04-14T20:44:57.906Z,9.97
2023-04-14T20:48:55.887Z,9.95
2023-04-14T20:52:53.890Z,9.94
2023-04-14T20:56:51.874Z,9.90
2023-04-14T21:00:49.897Z,9.87
2023-04-14T21:04:48.029Z,9.83
2023-04-14T21:08:46.886Z,9.82
2023-04-14T21:15:00.370Z,9.79
2023-04-14T21:17:02.865Z,9.76
2023-04-14T21:21:00.923Z,9.74
2023-04-14T21:24:58.873Z,9.71
2023-04-14T21:28:56.958Z,9.71
2023-04-14T21:32:54.901Z,9.69
2023-04-14T21:36:53.856Z,9.70
2023-04-14T21:40:51.912Z,9.69
2023-04-14T21:44:49.966Z,9.68
2023-04-14T21:48:47.789Z,9.68
2023-04-14T21:52:45.822Z,9.67
2023-04-14T21:56:44.795Z,9.67
2023-04-14T22:00:43.854Z,9.65
2023-04-14T22:04:41.827Z,9.65
2023-04-14T22:08:40.899Z,9.63
2023-04-14T22:12:38.811Z,9.60
2023-04-14T22:16:36.948Z,9.56
2023-04-14T22:20:34.739Z,9.50
2023-04-14T22:24:32.877Z,9.47
2023-04-14T22:28:30.760Z,9.41
2023-04-14T22:32:28.839Z,9.34
2023-04-14T22:36:26.785Z,9.25
2023-04-14T22:40:24.770Z,9.20
2023-04-14T22:44:22.727Z,9.18
2023-04-14T22:48:21.782Z,9.18
2023-04-14T22:52:19.728Z,9.19
2023-04-14T22:56:17.804Z,9.20
2023-04-14T23:00:15.701Z,9.20
2023-04-14T23:04:13.797Z,9.20
2023-04-14T23:08:11.769Z,9.17
2023-04-14T23:12:09.721Z,9.15
2023-04-14T23:16:07.749Z,9.11
2023-04-14T23:20:05.690Z,9.07
2023-04-14T23:24:04.683Z,9.02
2023-04-14T23:28:02.798Z,8.99
2023-04-14T23:32:00.738Z,8.96
2023-04-14T23:35:58.727Z,8.93
2023-04-14T23:39:56.694Z,8.91
2023-04-14T23:43:55.701Z,8.90
2023-04-14T23:47:53.741Z,8.90
2023-04-14T23:51:51.659Z,8.89
2023-04-14T23:55:49.640Z,8.89
2023-04-14T23:59:47.673Z,8.89
